Flight Track Log - Related Links

Times and Time Zones

All times are in EDT time to prevent confusion due to time zone crossing. See the SWA407 flight status page for this flight to view local times or setup timezone preferences in your user account.

Time Position Orientation Groundspeed Altitude Reporting Facility
EDT Latitude Longitude Course Direction KTS MPH feet Rate Location/Type
Fri 01:24:27 PM 36.1500 -86.6500 90° East 158 182 1,600  Level Nashville TRACON
Fri 01:25:39 PM 36.1500 -86.5833 90° East 232 267 4,900 2,667 Climbing Nashville TRACON
Fri 01:26:33 PM 36.0833 -86.5667 169° South 283 326 7,200 2,784 Climbing Nashville TRACON
Fri 01:27:44 PM 35.9956 -86.5369 165° South 325 374 10,700 2,656 Climbing Memphis Center
Fri 01:28:44 PM 35.8903 -86.5086 168° South 342 394 13,000 2,950 Climbing Memphis Center
Fri 01:29:44 PM 35.7914 -86.4800 167° South 363 418 16,600 2,949 Climbing Memphis Center
Fri 01:31:39 PM 35.6053 -86.4372 169° South 375 432 21,600 2,469 Climbing Atlanta Center
Fri 01:32:39 PM 35.4992 -86.4161 171° South 380 437 23,800 2,050 Climbing Atlanta Center
Fri 01:33:39 PM 35.3808 -86.3872 169° South 392 451 25,700 1,850 Climbing Atlanta Center
Fri 01:34:39 PM 35.2692 -86.3308 158° South 412 474 27,500 1,600 Climbing Atlanta Center
Fri 01:35:39 PM 35.1597 -86.2667 154° Southeast 432 497 28,900 1,714 Climbing Atlanta Center
Fri 01:36:38 PM 35.0442 -86.2028 156° South 437 503 30,900 1,950 Climbing Atlanta Center
Fri 01:37:39 PM 34.9303 -86.1517 160° South 442 509 32,800 1,636 Climbing Atlanta Center
Fri 01:38:39 PM 34.8164 -86.1058 162° South 432 497 34,200 1,100 Climbing Atlanta Center
Fri 01:39:39 PM 34.7044 -86.0575 160° South 432 497 35,000 400 Climbing Atlanta Center
Fri 01:40:39 PM 34.6069 -86.0122 159° South 427 491 35,000  Level Atlanta Center
Fri 01:41:39 PM 34.4931 -85.9642 161° South 427 491 35,000  Level Atlanta Center
Fri 01:42:39 PM 34.3789 -85.9189 162° South 427 491 35,000  Level Atlanta Center
Fri 01:44:00 PM 34.2509 -85.8621 159° South  Level FlightAware Approximate
Fri 01:44:39 PM 34.1550 -85.8236 159° South 427 491 35,000  Level Atlanta Center
Fri 01:45:39 PM 34.0367 -85.7761 162° South 414 476 35,000  Level Atlanta Center
Fri 01:46:39 PM 33.9244 -85.7311 162° South 414 476 35,000  Level Atlanta Center
Fri 01:47:39 PM 33.8103 -85.6839 161° South 423 487 35,000  Level Atlanta Center
Fri 01:48:39 PM 33.6961 -85.6367 161° South 428 493 35,000  Level Atlanta Center
Fri 01:49:39 PM 33.5842 -85.5897 161° South 422 486 35,000  Level Atlanta Center
Fri 01:50:39 PM 33.4700 -85.5431 161° South 422 486 35,000  Level Atlanta Center
Fri 01:51:39 PM 33.3597 -85.4989 162° South 422 486 35,000  Level Atlanta Center
Fri 01:52:39 PM 33.2475 -85.4522 161° South 422 486 35,000  Level Atlanta Center
Fri 01:53:39 PM 33.1458 -85.4108 161° South 422 486 35,000  Level Atlanta Center
Fri 01:54:39 PM 33.0253 -85.3544 159° South 422 486 35,000  Level Atlanta Center
Fri 01:55:39 PM 32.9131 -85.3081 161° South 427 491 35,000  Level Atlanta Center
Fri 01:56:39 PM 32.7967 -85.2572 160° South 427 491 35,000  Level Atlanta Center
Fri 01:57:39 PM 32.6908 -85.2161 162° South 411 473 35,000  Level Atlanta Center
Fri 01:58:39 PM 32.5764 -85.1703 161° South 421 484 35,000  Level Atlanta Center
Fri 01:59:39 PM 32.4703 -85.1294 162° South 421 484 35,000  Level Atlanta Center
Fri 02:00:39 PM 32.3725 -85.0889 161° South 421 484 35,000  Level Atlanta Center
Fri 02:01:39 PM 32.2456 -85.0433 163° South 427 491 35,000  Level Atlanta Center
Fri 02:02:39 PM 32.1333 -84.9978 161° South 427 491 35,000  Level Atlanta Center
Fri 02:03:16 PM 32.0639 -84.9642 158° South 428 493 35,000  Level Jacksonville Center
Fri 02:04:16 PM 31.9519 -84.9225 162° South 437 503 35,000  Level Jacksonville Center
Fri 02:05:16 PM 31.8378 -84.8783 162° South 437 503 35,000  Level Jacksonville Center
Fri 02:06:16 PM 31.7258 -84.8344 162° South 437 503 35,000  Level Jacksonville Center
Fri 02:07:16 PM 31.6136 -84.7881 161° South 431 496 35,000  Level Jacksonville Center
Fri 02:08:16 PM 31.5036 -84.7469 162° South 426 490 35,000  Level Jacksonville Center
Fri 02:09:16 PM 31.3978 -84.7058 162° South 416 479 35,000  Level Jacksonville Center
Fri 02:10:16 PM 31.2919 -84.6625 161° South 411 473 35,000  Level Jacksonville Center
Fri 02:11:16 PM 31.1839 -84.6192 161° South 411 473 35,000  Level Jacksonville Center
Fri 02:12:16 PM 31.0758 -84.5783 162° South 406 467 35,000  Level Jacksonville Center
Fri 02:13:16 PM 30.9700 -84.5353 161° South 401 461 35,000  Level Jacksonville Center
Fri 02:14:16 PM 30.8619 -84.4947 162° South 401 461 35,000  Level Jacksonville Center
Fri 02:15:16 PM 30.7581 -84.4542 161° South 401 461 35,000  Level Jacksonville Center
Fri 02:16:16 PM 30.6519 -84.4114 161° South 401 461 35,000  Level Jacksonville Center
Fri 02:17:16 PM 30.5461 -84.3711 162° South 401 461 35,000  Level Jacksonville Center
Fri 02:18:16 PM 30.4444 -84.3022 150° Southeast 406 467 35,000  Level Jacksonville Center
Fri 02:19:16 PM 30.3450 -84.2356 150° Southeast 411 473 35,000  Level Jacksonville Center
Fri 02:20:16 PM 30.2433 -84.1717 151° Southeast 417 480 35,000  Level Jacksonville Center
Fri 02:21:16 PM 30.1439 -84.1056 150° Southeast 412 474 35,000 -350 Level Jacksonville Center
Fri 02:22:16 PM 30.0422 -84.0372 150° Southeast 412 474 34,300 -800 Descending Jacksonville Center
Fri 02:23:16 PM 29.9383 -83.9711 151° Southeast 412 474 33,400 -950 Descending Jacksonville Center
Fri 02:24:16 PM 29.8303 -83.9031 151° Southeast 418 481 32,400 -1,000 Descending Jacksonville Center
Fri 02:25:16 PM 29.7222 -83.8325 150° Southeast 431 496 31,400 -950 Descending Jacksonville Center
Fri 02:26:16 PM 29.6142 -83.7644 151° Southeast 438 504 30,500 -950 Descending Jacksonville Center
Fri 02:27:16 PM 29.5061 -83.6919 150° Southeast 443 510 29,500 -1,000 Descending Jacksonville Center
Fri 02:28:16 PM 29.3981 -83.6244 151° Southeast 443 510 28,500 -1,000 Descending Jacksonville Center
Fri 02:29:16 PM 29.2897 -83.5544 151° Southeast 443 510 27,500 -750 Descending Jacksonville Center
Fri 02:30:16 PM 29.1858 -83.4894 151° Southeast 437 503 27,000 -700 Descending Jacksonville Center
Fri 02:31:16 PM 29.0775 -83.4200 151° Southeast 437 503 26,100 -1,300 Descending Jacksonville Center
Fri 02:32:16 PM 28.9733 -83.3531 151° Southeast 437 503 24,400 -2,050 Descending Jacksonville Center
Fri 02:33:16 PM 28.8714 -83.2908 152° Southeast 437 503 22,000 -2,200 Descending Jacksonville Center
Fri 02:34:16 PM 28.7714 -83.2242 150° Southeast 430 495 20,000 -2,173 Descending Jacksonville Center
Fri 02:36:21 PM 28.5667 -83.1000 152° Southeast 389 448 15,300 -2,010 Descending Tampa TRACON
Fri 02:37:27 PM 28.5000 -83.0167 132° Southeast 369 425 13,600 -1,524 Descending Tampa TRACON
Fri 02:38:27 PM 28.4333 -82.9167 127° Southeast 360 414 12,100 -1,450 Descending Tampa TRACON
Fri 02:39:27 PM 28.4000 -82.8167 111° Southeast 319 367 10,700 -1,450 Descending Tampa TRACON
Fri 02:40:27 PM 28.3500 -82.7500 130° Southeast 301 346 9,200 -1,450 Descending Tampa TRACON
Fri 02:41:27 PM 28.3000 -82.6667 124° Southeast 297 342 7,800 -1,316 Descending Tampa TRACON
Fri 02:42:21 PM 28.2667 -82.6000 120° Southeast 292 336 6,700 -895 Descending Tampa TRACON
Fri 02:43:21 PM 28.2667 -82.5167 90° East 272 313 6,100 -850 Descending Tampa TRACON
Fri 02:44:21 PM 28.2333 -82.4667 127° Southeast 225 259 5,000 -835 Descending Tampa TRACON
Fri 02:45:16 PM 28.2000 -82.5167 233° Southwest 191 220 4,500 -700 Descending Tampa TRACON
Fri 02:46:21 PM 28.1667 -82.5167 180° South 156 180 3,600 -952 Descending Tampa TRACON
Fri 02:47:22 PM 28.1167 -82.5167 180° South 156 180 2,500 -909 Descending Tampa TRACON
Fri 02:48:33 PM 28.0667 -82.5333 196° South 137 158 1,600 -687 Descending Tampa TRACON
Fri 02:49:33 PM 28.0333 -82.5333 180° South 124 143 1,000 -600 Descending Tampa TRACON
Fri 02:51:00 PM 27.9755 -82.5332 161° South  Level Estimated
Fri 02:58:00 PM 27.9755 -82.5332 161° South  Level Estimated
Fri 02:59:00 PM 27.9755 -82.5332 161° South  Level Estimated

Login

Don't have an account? Register now (free) for customized features, flight alerts, and more!